sensor_id;sensor_type;location;lat;lon;timestamp;pressure;altitude;pressure_sealevel;temperature;humidity
12172;BME280;6149;52.418;13.668;2023-04-01T06:40:20;99403.34;;;9.48;100.00
12172;BME280;6149;52.418;13.668;2023-04-01T06:43:06;99404.00;;;9.51;100.00
12172;BME280;6149;52.418;13.668;2023-04-01T06:45:46;99403.78;;;9.54;100.00
12172;BME280;6149;52.418;13.668;2023-04-01T06:48:30;99408.13;;;9.55;100.00
12172;BME280;6149;52.418;13.668;2023-04-01T06:51:15;99402.09;;;9.53;100.00
12172;BME280;6149;52.418;13.668;2023-04-01T06:53:50;99408.22;;;9.54;100.00
12172;BME280;6149;52.418;13.668;2023-04-01T06:56:26;99401.47;;;9.62;100.00
12172;BME280;6149;52.418;13.668;2023-04-01T06:58:55;99403.16;;;9.63;100.00
12172;BME280;6149;52.418;13.668;2023-04-01T07:01:28;99411.94;;;9.64;100.00
12172;BME280;6149;52.418;13.668;2023-04-01T07:04:01;99408.56;;;9.62;100.00
12172;BME280;6149;52.418;13.668;2023-04-01T07:06:35;99412.03;;;9.62;100.00
12172;BME280;6149;52.418;13.668;2023-04-01T07:09:06;99413.72;;;9.63;100.00
12172;BME280;6149;52.418;13.668;2023-04-01T07:11:38;99416.97;;;9.67;100.00
12172;BME280;6149;52.418;13.668;2023-04-01T07:14:12;99413.28;;;9.69;100.00
12172;BME280;6149;52.418;13.668;2023-04-01T07:16:45;99416.66;;;9.71;100.00
12172;BME280;6149;52.418;13.668;2023-04-01T07:19:21;99417.50;;;9.72;100.00
12172;BME280;6149;52.418;13.668;2023-04-01T07:21:52;99425.44;;;9.72;100.00
12172;BME280;6149;52.418;13.668;2023-04-01T07:24:25;99425.44;;;9.72;100.00
12172;BME280;6149;52.418;13.668;2023-04-01T07:26:56;99427.00;;;9.75;100.00
12172;BME280;6149;52.418;13.668;2023-04-01T07:29:25;99431.25;;;9.77;100.00
12172;BME280;6149;52.418;13.668;2023-04-01T07:32:15;99431.88;;;9.81;100.00
12172;BME280;6149;52.418;13.668;2023-04-01T07:34:55;99433.66;;;9.80;100.00
12172;BME280;6149;52.418;13.668;2023-04-01T07:37:35;99435.25;;;9.83;100.00
12172;BME280;6149;52.418;13.668;2023-04-01T07:40:21;99439.06;;;9.91;100.00
12172;BME280;6149;52.418;13.668;2023-04-01T07:43:07;99431.97;;;10.04;100.00
12172;BME280;6149;52.418;13.668;2023-04-01T07:46:00;99439.66;;;10.07;100.00
12172;BME280;6149;52.418;13.668;2023-04-01T07:48:35;99434.81;;;10.14;100.00
12172;BME280;6149;52.418;13.668;2023-04-01T07:51:11;99437.13;;;10.19;100.00
12172;BME280;6149;52.418;13.668;2023-04-01T07:53:46;99435.06;;;10.24;100.00
12172;BME280;6149;52.418;13.668;2023-04-01T07:56:27;99442.66;;;10.28;100.00
12172;BME280;6149;52.418;13.668;2023-04-01T07:59:06;99441.50;;;10.32;100.00
12172;BME280;6149;52.418;13.668;2023-04-01T08:01:42;99443.91;;;10.35;100.00
12172;BME280;6149;52.418;13.668;2023-04-01T08:04:27;99450.53;;;10.41;100.00
12172;BME280;6149;52.418;13.668;2023-04-01T08:07:07;99454.28;;;10.38;100.00
12172;BME280;6149;52.418;13.668;2023-04-01T08:09:42;99456.28;;;10.35;100.00
12172;BME280;6149;52.418;13.668;2023-04-01T08:12:20;99453.91;;;10.43;100.00
12172;BME280;6149;52.418;13.668;2023-04-01T08:15:05;99461.25;;;10.40;100.00
12172;BME280;6149;52.418;13.668;2023-04-01T08:17:46;99455.13;;;10.39;100.00
12172;BME280;6149;52.418;13.668;2023-04-01T08:20:27;99465.34;;;10.44;100.00
12172;BME280;6149;52.418;13.668;2023-04-01T08:22:58;99460.78;;;10.46;100.00
12172;BME280;6149;52.418;13.668;2023-04-01T08:25:28;99463.09;;;10.50;100.00
12172;BME280;6149;52.418;13.668;2023-04-01T08:27:59;99473.88;;;10.60;100.00
12172;BME280;6149;52.418;13.668;2023-04-01T08:30:39;99470.50;;;10.58;100.00
12172;BME280;6149;52.418;13.668;2023-04-01T08:33:14;99476.53;;;10.60;100.00
12172;BME280;6149;52.418;13.668;2023-04-01T08:35:46;99470.16;;;10.62;100.00
12172;BME280;6149;52.418;13.668;2023-04-01T08:38:19;99474.06;;;10.69;100.00
12172;BME280;6149;52.418;13.668;2023-04-01T08:40:58;99476.13;;;10.77;100.00
12172;BME280;6149;52.418;13.668;2023-04-01T08:43:42;99477.59;;;10.81;100.00
12172;BME280;6149;52.418;13.668;2023-04-01T08:46:56;99475.81;;;10.82;100.00
12172;BME280;6149;52.418;13.668;2023-04-01T08:49:56;99485.09;;;10.87;100.00
12172;BME280;6149;52.418;13.668;2023-04-01T08:52:41;99486.91;;;10.87;100.00
12172;BME280;6149;52.418;13.668;2023-04-01T08:55:25;99482.03;;;10.93;100.00
12172;BME280;6149;52.418;13.668;2023-04-01T08:58:20;99489.22;;;10.91;100.00
12172;BME280;6149;52.418;13.668;2023-04-01T09:00:57;99491.75;;;10.93;100.00
12172;BME280;6149;52.418;13.668;2023-04-01T09:03:43;99483.59;;;10.96;100.00
12172;BME280;6149;52.418;13.668;2023-04-01T09:06:24;99483.88;;;11.04;100.00
12172;BME280;6149;52.418;13.668;2023-04-01T09:09:22;99486.94;;;11.11;100.00
12172;BME280;6149;52.418;13.668;2023-04-01T09:12:12;99498.63;;;11.19;100.00
12172;BME280;6149;52.418;13.668;2023-04-01T09:15:07;99500.38;;;11.08;100.00
12172;BME280;6149;52.418;13.668;2023-04-01T09:21:15;99505.16;;;11.02;100.00
12172;BME280;6149;52.418;13.668;2023-04-01T09:24:13;99508.44;;;11.06;100.00
12172;BME280;6149;52.418;13.668;2023-04-01T09:27:00;99508.47;;;10.93;100.00
12172;BME280;6149;52.418;13.668;2023-04-01T09:29:52;99514.63;;;10.81;100.00
12172;BME280;6149;52.418;13.668;2023-04-01T09:32:44;99517.22;;;10.70;100.00
12172;BME280;6149;52.418;13.668;2023-04-01T09:35:23;99517.66;;;10.64;100.00
12172;BME280;6149;52.418;13.668;2023-04-01T09:38:03;99530.75;;;10.53;100.00
12172;BME280;6149;52.418;13.668;2023-04-01T09:40:48;99524.84;;;10.49;100.00
12172;BME280;6149;52.418;13.668;2023-04-01T09:43:25;99533.41;;;10.53;100.00
12172;BME280;6149;52.418;13.668;2023-04-01T09:46:03;99533.63;;;10.50;100.00
12172;BME280;6149;52.418;13.668;2023-04-01T09:48:51;99536.38;;;10.48;100.00
12172;BME280;6149;52.418;13.668;2023-04-01T09:51:39;99540.72;;;10.36;100.00
12172;BME280;6149;52.418;13.668;2023-04-01T09:54:26;99554.38;;;10.30;100.00
12172;BME280;6149;52.418;13.668;2023-04-01T10:00:39;99553.25;;;10.07;100.00
12172;BME280;6149;52.418;13.668;2023-04-01T10:04:01;99557.78;;;10.05;100.00
12172;BME280;6149;52.418;13.668;2023-04-01T10:10:28;99558.72;;;10.04;100.00
12172;BME280;6149;52.418;13.668;2023-04-01T10:13:42;99573.97;;;10.01;100.00
12172;BME280;6149;52.418;13.668;2023-04-01T10:16:58;99569.28;;;10.04;100.00
12172;BME280;6149;52.418;13.668;2023-04-01T10:19:53;99574.28;;;9.96;100.00
12172;BME280;6149;52.418;13.668;2023-04-01T10:22:54;99578.56;;;9.85;100.00
12172;BME280;6149;52.418;13.668;2023-04-01T10:25:37;99578.78;;;9.82;100.00
12172;BME280;6149;52.418;13.668;2023-04-01T10:28:36;99587.75;;;9.79;100.00
12172;BME280;6149;52.418;13.668;2023-04-01T10:31:42;99584.06;;;9.82;100.00
12172;BME280;6149;52.418;13.668;2023-04-01T10:34:43;99577.28;;;9.78;100.00
12172;BME280;6149;52.418;13.668;2023-04-01T10:40:58;99583.91;;;9.70;100.00
12172;BME280;6149;52.418;13.668;2023-04-01T10:43:59;99585.38;;;9.62;100.00
12172;BME280;6149;52.418;13.668;2023-04-01T10:47:01;99579.56;;;9.57;100.00
12172;BME280;6149;52.418;13.668;2023-04-01T10:50:06;99585.69;;;9.57;100.00
12172;BME280;6149;52.418;13.668;2023-04-01T10:53:02;99593.91;;;9.65;100.00
12172;BME280;6149;52.418;13.668;2023-04-01T10:56:04;99596.69;;;9.64;100.00
12172;BME280;6149;52.418;13.668;2023-04-01T10:59:08;99591.50;;;9.62;100.00
12172;BME280;6149;52.418;13.668;2023-04-01T11:02:33;99594.91;;;9.64;100.00
12172;BME280;6149;52.418;13.668;2023-04-01T11:06:16;99596.97;;;9.59;100.00
12172;BME280;6149;52.418;13.668;2023-04-01T11:09:40;99603.66;;;9.65;100.00
12172;BME280;6149;52.418;13.668;2023-04-01T11:12:43;99607.53;;;9.59;100.00
12172;BME280;6149;52.418;13.668;2023-04-01T11:19:35;99619.78;;;9.60;100.00
12172;BME280;6149;52.418;13.668;2023-04-01T11:22:35;99619.34;;;9.54;100.00
12172;BME280;6149;52.418;13.668;2023-04-01T11:25:35;99620.56;;;9.48;100.00
12172;BME280;6149;52.418;13.668;2023-04-01T11:28:35;99620.69;;;9.47;100.00
12172;BME280;6149;52.418;13.668;2023-04-01T11:31:32;99631.13;;;9.48;100.00
12172;BME280;6149;52.418;13.668;2023-04-01T11:34:22;99629.44;;;9.47;100.00
12172;BME280;6149;52.418;13.668;2023-04-01T11:37:16;99629.91;;;9.39;100.00
12172;BME280;6149;52.418;13.668;2023-04-01T11:39:59;99637.94;;;9.38;100.00
12172;BME280;6149;52.418;13.668;2023-04-01T11:42:40;99639.72;;;9.37;100.00
12172;BME280;6149;52.418;13.668;2023-04-01T11:45:23;99641.91;;;9.31;100.00
12172;BME280;6149;52.418;13.668;2023-04-01T11:48:26;99642.13;;;9.28;100.00
12172;BME280;6149;52.418;13.668;2023-04-01T11:54:28;99652.88;;;9.25;100.00
12172;BME280;6149;52.418;13.668;2023-04-01T11:57:12;99654.94;;;9.20;100.00
12172;BME280;6149;52.418;13.668;2023-04-01T11:59:58;99657.78;;;9.17;100.00
12172;BME280;6149;52.418;13.668;2023-04-01T12:03:01;99661.06;;;9.06;100.00
12172;BME280;6149;52.418;13.668;2023-04-01T12:05:48;99665.03;;;9.13;100.00
12172;BME280;6149;52.418;13.668;2023-04-01T12:08:33;99667.84;;;9.10;100.00
12172;BME280;6149;52.418;13.668;2023-04-01T12:11:11;99677.25;;;9.00;100.00
12172;BME280;6149;52.418;13.668;2023-04-01T12:13:47;99669.81;;;8.92;100.00
12172;BME280;6149;52.418;13.668;2023-04-01T12:16:37;99678.03;;;8.88;100.00
12172;BME280;6149;52.418;13.668;2023-04-01T12:19:15;99678.97;;;8.87;100.00
12172;BME280;6149;52.418;13.668;2023-04-01T12:21:55;99681.44;;;8.90;100.00
12172;BME280;6149;52.418;13.668;2023-04-01T12:24:45;99686.97;;;8.85;100.00
12172;BME280;6149;52.418;13.668;2023-04-01T12:27:20;99683.69;;;8.82;100.00
12172;BME280;6149;52.418;13.668;2023-04-01T12:30:18;99695.53;;;8.75;100.00
12172;BME280;6149;52.418;13.668;2023-04-01T12:33:04;99697.66;;;8.68;100.00
12172;BME280;6149;52.418;13.668;2023-04-01T12:35:55;99691.38;;;8.70;100.00
12172;BME280;6149;52.418;13.668;2023-04-01T12:38:34;99694.59;;;8.76;100.00
12172;BME280;6149;52.418;13.668;2023-04-01T12:41:08;99706.34;;;8.70;100.00
12172;BME280;6149;52.418;13.668;2023-04-01T12:43:58;99703.53;;;8.73;100.00
12172;BME280;6149;52.418;13.668;2023-04-01T12:46:46;99708.78;;;8.73;100.00
12172;BME280;6149;52.418;13.668;2023-04-01T12:49:33;99714.16;;;8.71;100.00
12172;BME280;6149;52.418;13.668;2023-04-01T12:52:10;99717.28;;;8.78;100.00
12172;BME280;6149;52.418;13.668;2023-04-01T12:55:09;99724.81;;;8.84;100.00
12172;BME280;6149;52.418;13.668;2023-04-01T12:58:10;99725.50;;;8.88;100.00
12172;BME280;6149;52.418;13.668;2023-04-01T13:04:14;99723.56;;;8.76;100.00
12172;BME280;6149;52.418;13.668;2023-04-01T13:07:23;99724.50;;;8.75;100.00
12172;BME280;6149;52.418;13.668;2023-04-01T13:10:02;99736.53;;;8.64;100.00
12172;BME280;6149;52.418;13.668;2023-04-01T13:12:55;99743.41;;;8.67;100.00
12172;BME280;6149;52.418;13.668;2023-04-01T13:15:47;99739.84;;;8.68;100.00
12172;BME280;6149;52.418;13.668;2023-04-01T13:18:25;99749.03;;;8.61;100.00
12172;BME280;6149;52.418;13.668;2023-04-01T13:21:03;99751.00;;;8.57;100.00
12172;BME280;6149;52.418;13.668;2023-04-01T13:23:43;99754.66;;;8.55;100.00
12172;BME280;6149;52.418;13.668;2023-04-01T13:26:24;99751.50;;;8.64;100.00
12172;BME280;6149;52.418;13.668;2023-04-01T13:28:59;99764.25;;;8.56;100.00
12172;BME280;6149;52.418;13.668;2023-04-01T13:31:42;99758.44;;;8.51;100.00
12172;BME280;6149;52.418;13.668;2023-04-01T13:34:30;99762.19;;;8.47;100.00
12172;BME280;6149;52.418;13.668;2023-04-01T13:37:22;99768.31;;;8.47;100.00
12172;BME280;6149;52.418;13.668;2023-04-01T13:40:12;99767.28;;;8.50;100.00
12172;BME280;6149;52.418;13.668;2023-04-01T13:42:49;99766.53;;;8.48;100.00
12172;BME280;6149;52.418;13.668;2023-04-01T13:45:22;99769.91;;;8.50;100.00
12172;BME280;6149;52.418;13.668;2023-04-01T13:48:01;99776.03;;;8.50;100.00
12172;BME280;6149;52.418;13.668;2023-04-01T13:50:59;99771.31;;;8.55;100.00
12172;BME280;6149;52.418;13.668;2023-04-01T13:53:50;99775.19;;;8.50;100.00
12172;BME280;6149;52.418;13.668;2023-04-01T13:56:50;99777.50;;;8.40;100.00
12172;BME280;6149;52.418;13.668;2023-04-01T14:02:44;99785.91;;;8.47;100.00
12172;BME280;6149;52.418;13.668;2023-04-01T14:05:33;99787.28;;;8.38;100.00
12172;BME280;6149;52.418;13.668;2023-04-01T14:08:14;99782.84;;;8.38;100.00
12172;BME280;6149;52.418;13.668;2023-04-01T14:10:54;99795.09;;;8.40;100.00
12172;BME280;6149;52.418;13.668;2023-04-01T14:13:32;99796.97;;;8.37;100.00
12172;BME280;6149;52.418;13.668;2023-04-01T14:16:20;99802.66;;;8.46;100.00
12172;BME280;6149;52.418;13.668;2023-04-01T14:19:18;99805.28;;;8.46;100.00
12172;BME280;6149;52.418;13.668;2023-04-01T14:21:58;99808.94;;;8.43;100.00
12172;BME280;6149;52.418;13.668;2023-04-01T14:25:10;99810.88;;;8.40;100.00
12172;BME280;6149;52.418;13.668;2023-04-01T14:28:06;99810.47;;;8.47;100.00
12172;BME280;6149;52.418;13.668;2023-04-01T14:30:46;99823.47;;;8.50;100.00
12172;BME280;6149;52.418;13.668;2023-04-01T14:33:31;99828.06;;;8.47;100.00
12172;BME280;6149;52.418;13.668;2023-04-01T14:36:22;99827.19;;;8.46;100.00
12172;BME280;6149;52.418;13.668;2023-04-01T14:39:06;99826.25;;;8.31;100.00
12172;BME280;6149;52.418;13.668;2023-04-01T14:41:47;99833.72;;;8.23;100.00
12172;BME280;6149;52.418;13.668;2023-04-01T14:44:34;99840.84;;;8.21;100.00
12172;BME280;6149;52.418;13.668;2023-04-01T14:47:25;99841.88;;;8.19;100.00
12172;BME280;6149;52.418;13.668;2023-04-01T14:50:05;99852.41;;;8.19;100.00
12172;BME280;6149;52.418;13.668;2023-04-01T14:52:36;99851.91;;;8.12;100.00
12172;BME280;6149;52.418;13.668;2023-04-01T14:55:21;99859.97;;;8.09;100.00
12172;BME280;6149;52.418;13.668;2023-04-01T14:58:08;99860.75;;;8.11;100.00
12172;BME280;6149;52.418;13.668;2023-04-01T15:00:48;99864.72;;;8.02;100.00
12172;BME280;6149;52.418;13.668;2023-04-01T15:03:26;99860.38;;;8.17;100.00
12172;BME280;6149;52.418;13.668;2023-04-01T15:06:10;99873.22;;;8.08;100.00
12172;BME280;6149;52.418;13.668;2023-04-01T15:08:57;99875.59;;;7.96;100.00
12172;BME280;6149;52.418;13.668;2023-04-01T15:11:37;99873.88;;;7.95;100.00
12172;BME280;6149;52.418;13.668;2023-04-01T15:14:35;99872.09;;;7.96;100.00
12172;BME280;6149;52.418;13.668;2023-04-01T15:17:27;99876.69;;;7.92;100.00
12172;BME280;6149;52.418;13.668;2023-04-01T15:20:17;99881.50;;;7.84;100.00
12172;BME280;6149;52.418;13.668;2023-04-01T15:23:02;99881.50;;;7.84;100.00
12172;BME280;6149;52.418;13.668;2023-04-01T15:25:50;99894.94;;;7.80;100.00
12172;BME280;6149;52.418;13.668;2023-04-01T15:28:28;99891.94;;;7.86;100.00
12172;BME280;6149;52.418;13.668;2023-04-01T15:31:04;99896.44;;;7.84;100.00
12172;BME280;6149;52.418;13.668;2023-04-01T15:33:44;99893.41;;;7.76;100.00
12172;BME280;6149;52.418;13.668;2023-04-01T15:36:27;99906.56;;;7.76;100.00
12172;BME280;6149;52.418;13.668;2023-04-01T15:39:05;99915.13;;;7.79;100.00
12172;BME280;6149;52.418;13.668;2023-04-01T15:41:44;99908.03;;;7.64;100.00
12172;BME280;6149;52.418;13.668;2023-04-01T15:44:46;99916.16;;;7.59;100.00
12172;BME280;6149;52.418;13.668;2023-04-01T15:47:35;99923.97;;;7.61;100.00
12172;BME280;6149;52.418;13.668;2023-04-01T15:50:28;99934.03;;;7.70;100.00
12172;BME280;6149;52.418;13.668;2023-04-01T15:56:14;99927.63;;;7.58;100.00
12172;BME280;6149;52.418;13.668;2023-04-01T15:59:16;99933.13;;;7.54;100.00
12172;BME280;6149;52.418;13.668;2023-04-01T16:01:53;99942.00;;;7.51;100.00
12172;BME280;6149;52.418;13.668;2023-04-01T16:04:36;99938.69;;;7.48;100.00
12172;BME280;6149;52.418;13.668;2023-04-01T16:07:27;99944.88;;;7.47;100.00
12172;BME280;6149;52.418;13.668;2023-04-01T16:10:17;99947.06;;;7.38;100.00
12172;BME280;6149;52.418;13.668;2023-04-01T16:13:01;99950.06;;;7.31;100.00
12172;BME280;6149;52.418;13.668;2023-04-01T16:15:38;99960.41;;;7.17;100.00
12172;BME280;6149;52.418;13.668;2023-04-01T16:18:23;99964.28;;;7.10;100.00
12172;BME280;6149;52.418;13.668;2023-04-01T16:21:02;99962.03;;;7.19;100.00
12172;BME280;6149;52.418;13.668;2023-04-01T16:23:36;99967.81;;;7.09;100.00
12172;BME280;6149;52.418;13.668;2023-04-01T16:26:13;99972.47;;;7.03;100.00
12172;BME280;6149;52.418;13.668;2023-04-01T16:28:49;99982.16;;;7.03;100.00
12172;BME280;6149;52.418;13.668;2023-04-01T16:31:30;99980.19;;;7.07;100.00
12172;BME280;6149;52.418;13.668;2023-04-01T16:34:01;99988.06;;;7.07;100.00
12172;BME280;6149;52.418;13.668;2023-04-01T16:36:36;99996.88;;;7.05;100.00
12172;BME280;6149;52.418;13.668;2023-04-01T16:39:26;99996.44;;;6.97;100.00
12172;BME280;6149;52.418;13.668;2023-04-01T16:42:14;100011.72;;;6.89;100.00
12172;BME280;6149;52.418;13.668;2023-04-01T16:44:49;100004.97;;;6.84;100.00
12172;BME280;6149;52.418;13.668;2023-04-01T16:47:21;100014.84;;;6.79;100.00
12172;BME280;6149;52.418;13.668;2023-04-01T16:49:58;100014.69;;;6.82;100.00
12172;BME280;6149;52.418;13.668;2023-04-01T16:52:36;100026.00;;;6.84;100.00
12172;BME280;6149;52.418;13.668;2023-04-01T16:55:34;100025.56;;;6.74;100.00
12172;BME280;6149;52.418;13.668;2023-04-01T16:58:03;100038.69;;;6.74;100.00
12172;BME280;6149;52.418;13.668;2023-04-01T17:00:37;100039.63;;;6.73;100.00
12172;BME280;6149;52.418;13.668;2023-04-01T17:03:11;100040.78;;;6.67;100.00
12172;BME280;6149;52.418;13.668;2023-04-01T17:05:54;100049.78;;;6.62;100.00
12172;BME280;6149;52.418;13.668;2023-04-01T17:08:41;100056.97;;;6.58;100.00
12172;BME280;6149;52.418;13.668;2023-04-01T17:11:19;100054.25;;;6.60;100.00
12172;BME280;6149;52.418;13.668;2023-04-01T17:14:00;100061.34;;;6.58;100.00
12172;BME280;6149;52.418;13.668;2023-04-01T17:16:46;100075.41;;;6.57;100.00
12172;BME280;6149;52.418;13.668;2023-04-01T17:19:30;100081.00;;;6.49;100.00
12172;BME280;6149;52.418;13.668;2023-04-01T17:22:20;100079.09;;;6.53;100.00
12172;BME280;6149;52.418;13.668;2023-04-01T17:25:01;100092.69;;;6.42;100.00
12172;BME280;6149;52.418;13.668;2023-04-01T17:27:42;100087.63;;;6.37;100.00
12172;BME280;6149;52.418;13.668;2023-04-01T17:30:24;100093.06;;;6.53;100.00
12172;BME280;6149;52.418;13.668;2023-04-01T17:33:17;100102.59;;;6.35;100.00
12172;BME280;6149;52.418;13.668;2023-04-01T17:35:59;100104.88;;;6.24;100.00
12172;BME280;6149;52.418;13.668;2023-04-01T17:38:50;100106.59;;;6.25;100.00
12172;BME280;6149;52.418;13.668;2023-04-01T17:41:34;100115.63;;;6.18;100.00
12172;BME280;6149;52.418;13.668;2023-04-01T17:44:16;100115.34;;;6.04;100.00
12172;BME280;6149;52.418;13.668;2023-04-01T17:50:09;100126.34;;;5.93;100.00
12172;BME280;6149;52.418;13.668;2023-04-01T17:52:47;100129.19;;;5.87;100.00
12172;BME280;6149;52.418;13.668;2023-04-01T17:55:46;100136.31;;;5.84;100.00
12172;BME280;6149;52.418;13.668;2023-04-01T17:58:20;100149.69;;;5.78;100.00
12172;BME280;6149;52.418;13.668;2023-04-01T18:01:06;100149.50;;;5.82;100.00
12172;BME280;6149;52.418;13.668;2023-04-01T18:03:56;100161.09;;;5.77;100.00
12172;BME280;6149;52.418;13.668;2023-04-01T18:06:56;100166.28;;;5.78;100.00
12172;BME280;6149;52.418;13.668;2023-04-01T18:09:42;100169.00;;;5.75;100.00
12172;BME280;6149;52.418;13.668;2023-04-01T18:12:21;100168.84;;;5.80;100.00
12172;BME280;6149;52.418;13.668;2023-04-01T18:15:05;100175.97;;;5.76;100.00
12172;BME280;6149;52.418;13.668;2023-04-01T18:20:45;100188.34;;;5.72;100.00
12172;BME280;6149;52.418;13.668;2023-04-01T18:23:25;100191.22;;;5.66;100.00
12172;BME280;6149;52.418;13.668;2023-04-01T18:26:03;100198.22;;;5.66;100.00
12172;BME280;6149;52.418;13.668;2023-04-01T18:28:36;100195.00;;;5.59;100.00
12172;BME280;6149;52.418;13.668;2023-04-01T18:31:09;100210.78;;;5.58;100.00
12172;BME280;6149;52.418;13.668;2023-04-01T18:33:53;100217.09;;;5.54;100.00
12172;BME280;6149;52.418;13.668;2023-04-01T18:36:35;100221.28;;;5.58;100.00
12172;BME280;6149;52.418;13.668;2023-04-01T18:39:10;100233.69;;;5.54;100.00
12172;BME280;6149;52.418;13.668;2023-04-01T18:41:49;100234.25;;;5.39;100.00
12172;BME280;6149;52.418;13.668;2023-04-01T18:44:27;100243.31;;;5.30;100.00
12172;BME280;6149;52.418;13.668;2023-04-01T18:47:05;100241.03;;;5.21;100.00
12172;BME280;6149;52.418;13.668;2023-04-01T18:49:43;100243.03;;;5.15;100.00
12172;BME280;6149;52.418;13.668;2023-04-01T18:52:18;100255.13;;;5.19;100.00
12172;BME280;6149;52.418;13.668;2023-04-01T18:55:14;100259.72;;;5.12;100.00
12172;BME280;6149;52.418;13.668;2023-04-01T18:57:49;100271.97;;;5.12;100.00
12172;BME280;6149;52.418;13.668;2023-04-01T19:00:20;100271.22;;;5.08;100.00
12172;BME280;6149;52.418;13.668;2023-04-01T19:02:53;100275.72;;;5.04;100.00
12172;BME280;6149;52.418;13.668;2023-04-01T19:05:29;100273.91;;;5.07;100.00
12172;BME280;6149;52.418;13.668;2023-04-01T19:08:17;100275.72;;;5.04;100.00
12172;BME280;6149;52.418;13.668;2023-04-01T19:10:56;100277.66;;;4.99;100.00
12172;BME280;6149;52.418;13.668;2023-04-01T19:13:36;100284.81;;;4.94;100.00
12172;BME280;6149;52.418;13.668;2023-04-01T19:16:17;100288.53;;;4.87;100.00
12172;BME280;6149;52.418;13.668;2023-04-01T19:19:05;100293.41;;;4.98;100.00
12172;BME280;6149;52.418;13.668;2023-04-01T19:21:41;100285.88;;;4.89;100.00
12172;BME280;6149;52.418;13.668;2023-04-01T19:24:34;100289.44;;;4.86;100.00
12172;BME280;6149;52.418;13.668;2023-04-01T19:27:29;100297.91;;;4.94;100.00
12172;BME280;6149;52.418;13.668;2023-04-01T19:30:32;100315.84;;;4.82;100.00
12172;BME280;6149;52.418;13.668;2023-04-01T19:33:21;100316.91;;;4.76;100.00
12172;BME280;6149;52.418;13.668;2023-04-01T19:35:56;100323.00;;;4.77;100.00
12172;BME280;6149;52.418;13.668;2023-04-01T19:38:31;100318.91;;;4.68;100.00
12172;BME280;6149;52.418;13.668;2023-04-01T19:41:14;100329.47;;;4.65;100.00
12172;BME280;6149;52.418;13.668;2023-04-01T19:43:55;100325.97;;;4.66;100.00
12172;BME280;6149;52.418;13.668;2023-04-01T19:46:33;100332.81;;;4.70;100.00
12172;BME280;6149;52.418;13.668;2023-04-01T19:49:10;100336.28;;;4.70;100.00
12172;BME280;6149;52.418;13.668;2023-04-01T19:51:48;100338.91;;;4.70;100.00
12172;BME280;6149;52.418;13.668;2023-04-01T19:54:28;100344.28;;;4.66;100.00
12172;BME280;6149;52.418;13.668;2023-04-01T19:57:08;100346.19;;;4.61;100.00
12172;BME280;6149;52.418;13.668;2023-04-01T19:59:47;100357.69;;;4.57;100.00
12172;BME280;6149;52.418;13.668;2023-04-01T20:02:33;100356.78;;;4.58;100.00
12172;BME280;6149;52.418;13.668;2023-04-01T20:05:23;100362.91;;;4.57;100.00
12172;BME280;6149;52.418;13.668;2023-04-01T20:07:58;100373.34;;;4.58;100.00
12172;BME280;6149;52.418;13.668;2023-04-01T20:10:32;100371.88;;;4.50;100.00
12172;BME280;6149;52.418;13.668;2023-04-01T20:13:07;100379.13;;;4.42;100.00
12172;BME280;6149;52.418;13.668;2023-04-01T20:15:41;100382.50;;;4.45;100.00
12172;BME280;6149;52.418;13.668;2023-04-01T20:18:14;100395.69;;;4.42;100.00
12172;BME280;6149;52.418;13.668;2023-04-01T20:20:53;100405.25;;;4.43;100.00
12172;BME280;6149;52.418;13.668;2023-04-01T20:23:33;100397.28;;;4.46;100.00
12172;BME280;6149;52.418;13.668;2023-04-01T20:26:08;100413.13;;;4.43;100.00
12172;BME280;6149;52.418;13.668;2023-04-01T20:28:43;100416.97;;;4.31;100.00
12172;BME280;6149;52.418;13.668;2023-04-01T20:31:24;100415.25;;;4.30;100.00
12172;BME280;6149;52.418;13.668;2023-04-01T20:34:19;100428.31;;;4.30;100.00
12172;BME280;6149;52.418;13.668;2023-04-01T20:37:00;100424.13;;;4.25;100.00
12172;BME280;6149;52.418;13.668;2023-04-01T20:39:45;100433.03;;;4.19;100.00
12172;BME280;6149;52.418;13.668;2023-04-01T20:42:27;100438.22;;;4.21;100.00
12172;BME280;6149;52.418;13.668;2023-04-01T20:45:10;100432.97;;;4.21;100.00
12172;BME280;6149;52.418;13.668;2023-04-01T20:47:52;100440.97;;;4.16;100.00
12172;BME280;6149;52.418;13.668;2023-04-01T20:50:28;100448.03;;;4.13;100.00
12172;BME280;6149;52.418;13.668;2023-04-01T20:53:04;100450.59;;;4.14;100.00
12172;BME280;6149;52.418;13.668;2023-04-01T20:59:02;100464.94;;;4.02;100.00
12172;BME280;6149;52.418;13.668;2023-04-01T21:01:49;100458.03;;;4.00;100.00
12172;BME280;6149;52.418;13.668;2023-04-01T21:04:23;100462.44;;;3.98;100.00
12172;BME280;6149;52.418;13.668;2023-04-01T21:07:16;100468.56;;;3.97;100.00
12172;BME280;6149;52.418;13.668;2023-04-01T21:10:00;100473.75;;;3.98;100.00
12172;BME280;6149;52.418;13.668;2023-04-01T21:12:42;100479.94;;;3.96;100.00
12172;BME280;6149;52.418;13.668;2023-04-01T21:15:40;100483.41;;;3.96;100.00
12172;BME280;6149;52.418;13.668;2023-04-01T21:18:28;100484.38;;;3.92;100.00
12172;BME280;6149;52.418;13.668;2023-04-01T21:21:27;100496.91;;;3.81;100.00
12172;BME280;6149;52.418;13.668;2023-04-01T21:24:31;100501.19;;;3.84;100.00
12172;BME280;6149;52.418;13.668;2023-04-01T21:27:09;100504.75;;;3.81;100.00
12172;BME280;6149;52.418;13.668;2023-04-01T21:29:53;100506.69;;;3.73;100.00
12172;BME280;6149;52.418;13.668;2023-04-01T21:32:36;100510.22;;;3.72;100.00
12172;BME280;6149;52.418;13.668;2023-04-01T21:35:21;100511.97;;;3.72;100.00
12172;BME280;6149;52.418;13.668;2023-04-01T21:38:05;100515.56;;;3.69;100.00
12172;BME280;6149;52.418;13.668;2023-04-01T21:40:53;100525.91;;;3.72;100.00
12172;BME280;6149;52.418;13.668;2023-04-01T21:43:45;100534.72;;;3.69;100.00
12172;BME280;6149;52.418;13.668;2023-04-01T21:47:00;100530.28;;;3.72;100.00